Time;durP1;ratioP1;P1;durP2;ratioP2;P2;SDS_P1;SDS_P2;PMS_P1;PMS_P2;Temp;Humidity;BMP_temperature;BMP_pressure;BME280_temperature;BME280_humidity;BME280_pressure;Samples;Min_cycle;Max_cycle;Signal;HPM_P1;HPM_P2
2021/03/30 00:01:23;;;;;;;9.55;3.72;;;6.30;77.40;;;;;;4859987;29;20034;-73
2021/03/30 00:03:50;;;;;;;4.95;3.25;;;6.20;77.70;;;;;;4859842;29;20153;-74
2021/03/30 00:06:17;;;;;;;9.10;3.35;;;6.20;78.60;;;;;;4858509;29;20045;-74
2021/03/30 00:08:43;;;;;;;9.88;3.72;;;6.10;79.10;;;;;;4859369;29;20049;-73
2021/03/30 00:11:09;;;;;;;6.03;3.22;;;6.10;79.40;;;;;;4860406;29;20030;-73
2021/03/30 00:13:36;;;;;;;6.88;3.80;;;6.00;80.40;;;;;;4867546;29;20045;-73
2021/03/30 00:16:03;;;;;;;8.32;4.20;;;6.10;81.00;;;;;;4859827;29;20053;-75
2021/03/30 00:18:29;;;;;;;8.85;3.60;;;6.00;81.10;;;;;;4858395;29;20041;-73
2021/03/30 00:20:55;;;;;;;6.70;3.85;;;6.00;82.20;;;;;;4860373;29;20054;-73
2021/03/30 00:23:22;;;;;;;10.18;4.07;;;6.00;82.60;;;;;;4862132;29;20044;-73
2021/03/30 00:25:48;;;;;;;10.80;3.95;;;6.00;82.70;;;;;;4863137;29;20033;-73
2021/03/30 00:28:14;;;;;;;7.55;3.70;;;5.90;83.40;;;;;;4881800;29;20056;-73
2021/03/30 00:30:41;;;;;;;7.00;3.20;;;5.90;85.00;;;;;;4863167;29;20033;-73
2021/03/30 00:33:07;;;;;;;7.47;3.25;;;5.90;86.00;;;;;;4863691;29;20037;-73
2021/03/30 00:35:33;;;;;;;10.10;3.90;;;6.00;84.70;;;;;;4863265;29;20033;-73
2021/03/30 00:37:59;;;;;;;8.15;3.58;;;6.00;84.30;;;;;;4863369;29;20063;-73
2021/03/30 00:40:26;;;;;;;8.52;3.15;;;6.00;83.70;;;;;;4863285;29;20034;-74
2021/03/30 00:42:55;;;;;;;4.97;2.72;;;5.90;83.70;;;;;;4862676;29;20053;-74
2021/03/30 00:45:22;;;;;;;10.60;3.72;;;5.90;83.60;;;;;;4863166;29;20483;-74
2021/03/30 00:47:49;;;;;;;5.68;3.17;;;5.80;84.20;;;;;;4862214;29;20056;-74
2021/03/30 00:50:18;;;;;;;6.15;3.20;;;5.70;84.70;;;;;;4862846;29;20045;-74
2021/03/30 00:52:47;;;;;;;6.75;3.65;;;5.60;86.00;;;;;;4861369;29;20053;-74
2021/03/30 00:55:44;;;;;;;7.90;3.55;;;5.60;87.30;;;;;;4862146;29;20044;-74
2021/03/30 00:58:10;;;;;;;5.75;3.38;;;5.50;88.80;;;;;;4861690;29;20475;-74
2021/03/30 01:00:36;;;;;;;7.82;3.47;;;5.50;88.90;;;;;;4862771;29;20040;-74
2021/03/30 01:03:03;;;;;;;8.70;3.78;;;5.40;89.90;;;;;;4862968;29;20392;-73
2021/03/30 01:05:29;;;;;;;8.18;3.70;;;5.30;90.40;;;;;;4861933;29;20049;-74
2021/03/30 01:08:29;;;;;;;5.80;3.20;;;5.20;90.70;;;;;;4863062;29;20041;-74
2021/03/30 01:11:34;;;;;;;6.60;3.55;;;5.10;91.30;;;;;;4862345;29;20033;-73
2021/03/30 01:14:20;;;;;;;6.30;3.13;;;5.00;92.10;;;;;;4827323;29;20042;-73
2021/03/30 01:16:52;;;;;;;7.07;3.28;;;4.90;93.00;;;;;;4831621;29;20038;-74
2021/03/30 01:19:33;;;;;;;8.25;3.20;;;4.90;94.00;;;;;;4828682;29;20053;-74
2021/03/30 01:22:04;;;;;;;6.68;3.10;;;4.90;93.80;;;;;;4836058;29;20507;-74
2021/03/30 01:24:46;;;;;;;8.52;4.25;;;4.90;94.00;;;;;;4822921;29;20046;-74
2021/03/30 01:27:37;;;;;;;8.70;3.20;;;4.90;94.20;;;;;;4831165;29;20050;-74
2021/03/30 01:30:05;;;;;;;8.02;3.60;;;4.90;94.40;;;;;;4839836;29;20049;-74
2021/03/30 01:32:42;;;;;;;8.20;3.22;;;5.00;94.80;;;;;;4832701;29;20103;-74
2021/03/30 01:35:14;;;;;;;7.15;2.88;;;4.80;94.70;;;;;;4841730;29;20067;-74
2021/03/30 01:37:46;;;;;;;5.82;3.35;;;4.60;95.30;;;;;;4841252;29;20052;-74
2021/03/30 01:40:15;;;;;;;7.00;4.07;;;4.60;96.20;;;;;;4826436;29;20053;-74
2021/03/30 01:42:45;;;;;;;7.30;3.53;;;4.50;97.00;;;;;;4845246;29;20057;-74
2021/03/30 01:45:15;;;;;;;5.47;3.55;;;4.60;97.60;;;;;;4853922;29;20077;-72
2021/03/30 01:47:42;;;;;;;6.20;3.05;;;4.50;98.20;;;;;;4861515;29;20052;-73
2021/03/30 01:50:11;;;;;;;7.15;3.40;;;4.50;98.40;;;;;;4861766;29;20387;-73
2021/03/30 01:52:38;;;;;;;5.75;3.17;;;4.50;98.40;;;;;;4861290;29;20502;-74
2021/03/30 01:55:08;;;;;;;7.68;3.55;;;4.60;98.20;;;;;;4861666;29;20038;-74
2021/03/30 01:57:37;;;;;;;11.80;4.20;;;4.60;97.80;;;;;;4861816;29;20473;-74
2021/03/30 02:00:09;;;;;;;5.97;3.28;;;4.60;97.90;;;;;;4862076;29;20037;-73
2021/03/30 02:02:44;;;;;;;8.70;3.88;;;4.50;98.00;;;;;;4867252;29;20041;-73
2021/03/30 02:05:15;;;;;;;6.55;3.65;;;4.50;98.50;;;;;;4861665;29;20046;-74
2021/03/30 02:07:43;;;;;;;5.57;3.60;;;4.50;98.60;;;;;;4861538;29;20037;-75
2021/03/30 02:10:19;;;;;;;7.47;3.30;;;4.40;99.00;;;;;;4861387;29;20390;-73
2021/03/30 02:12:46;;;;;;;8.35;3.67;;;4.40;99.50;;;;;;4861108;29;20053;-73
2021/03/30 02:15:16;;;;;;;8.50;3.63;;;4.40;99.80;;;;;;4862081;29;20215;-73
2021/03/30 02:17:48;;;;;;;7.67;3.00;;;4.40;99.90;;;;;;4861194;29;20375;-73
2021/03/30 02:20:17;;;;;;;6.18;3.50;;;4.30;99.90;;;;;;4861790;29;20285;-73
2021/03/30 02:22:56;;;;;;;12.98;5.57;;;4.10;99.90;;;;;;4859717;29;20041;-73
2021/03/30 02:25:23;;;;;;;18.23;7.32;;;4.00;99.90;;;;;;4861007;29;20046;-72
2021/03/30 02:27:53;;;;;;;11.48;6.65;;;3.90;99.90;;;;;;4861175;29;20078;-73
2021/03/30 02:30:22;;;;;;;8.02;4.68;;;3.80;99.90;;;;;;4860974;29;20064;-73
2021/03/30 02:32:49;;;;;;;10.63;4.43;;;3.90;99.90;;;;;;4861045;29;20037;-73
2021/03/30 02:35:19;;;;;;;9.32;4.13;;;4.00;99.90;;;;;;4861266;29;20045;-73
2021/03/30 02:37:46;;;;;;;9.18;4.47;;;4.00;99.90;;;;;;4860664;29;20032;-73
2021/03/30 02:40:15;;;;;;;8.70;4.63;;;4.00;99.90;;;;;;4860991;29;20068;-72
2021/03/30 02:42:46;;;;;;;12.77;6.00;;;3.90;99.90;;;;;;4860033;29;20054;-73
2021/03/30 02:45:16;;;;;;;12.07;4.82;;;3.90;99.90;;;;;;4877897;29;20045;-73
2021/03/30 02:47:44;;;;;;;9.63;5.03;;;3.90;99.90;;;;;;4868000;29;20040;-73
2021/03/30 02:50:12;;;;;;;9.65;5.18;;;4.10;99.90;;;;;;4861332;29;20057;-73
2021/03/30 02:52:39;;;;;;;9.38;5.20;;;4.10;99.90;;;;;;4865641;29;20554;-73
2021/03/30 02:55:06;;;;;;;8.23;5.57;;;4.00;99.90;;;;;;4865726;29;20387;-73
2021/03/30 02:57:32;;;;;;;10.07;5.13;;;3.90;99.90;;;;;;4860288;29;20045;-73
2021/03/30 02:59:59;;;;;;;13.40;5.60;;;3.90;99.90;;;;;;4860719;29;20407;-73
2021/03/30 03:02:27;;;;;;;8.15;4.88;;;3.90;99.90;;;;;;4860482;29;20040;-72
2021/03/30 03:04:54;;;;;;;10.43;5.20;;;3.90;99.90;;;;;;4860975;29;20045;-72
2021/03/30 03:07:21;;;;;;;10.57;6.10;;;4.00;99.90;;;;;;4861228;29;20033;-73
2021/03/30 03:09:48;;;;;;;16.42;8.43;;;3.90;99.90;;;;;;4859999;29;20225;-73
2021/03/30 03:12:17;;;;;;;441.33;214.73;;;3.70;99.90;;;;;;4860164;29;20045;-73
2021/03/30 03:14:45;;;;;;;91.30;46.47;;;3.70;99.90;;;;;;4860428;29;20041;-72
2021/03/30 03:17:12;;;;;;;16.67;9.23;;;3.60;99.90;;;;;;4860567;29;20040;-73
2021/03/30 03:19:39;;;;;;;12.38;6.88;;;3.60;99.90;;;;;;4858384;29;20493;-73
2021/03/30 03:22:05;;;;;;;8.48;5.15;;;3.60;99.90;;;;;;4860533;29;20041;-73
2021/03/30 03:24:32;;;;;;;10.82;4.93;;;3.60;99.90;;;;;;4860313;29;20479;-73
2021/03/30 03:26:59;;;;;;;12.02;5.50;;;3.60;99.90;;;;;;4860602;29;20395;-73
2021/03/30 03:29:25;;;;;;;7.45;5.18;;;3.50;99.90;;;;;;4860581;29;20111;-72
2021/03/30 03:31:52;;;;;;;10.63;5.43;;;3.60;99.90;;;;;;4860047;29;20037;-72
2021/03/30 03:34:19;;;;;;;10.77;5.78;;;3.70;99.90;;;;;;4859669;29;20515;-72
2021/03/30 03:36:49;;;;;;;13.10;5.47;;;3.80;99.90;;;;;;4860351;29;20391;-73
2021/03/30 03:39:18;;;;;;;13.95;6.78;;;3.70;99.90;;;;;;4860182;29;20386;-73
2021/03/30 03:41:45;;;;;;;9.63;5.97;;;3.50;99.90;;;;;;4859858;29;20057;-73
2021/03/30 03:44:12;;;;;;;14.07;7.93;;;3.30;99.90;;;;;;4859999;29;20040;-72
2021/03/30 03:46:38;;;;;;;14.98;8.27;;;3.40;99.90;;;;;;4859959;29;20065;-72
2021/03/30 03:49:08;;;;;;;15.70;6.95;;;3.40;99.90;;;;;;4860494;29;20037;-73
2021/03/30 03:51:41;;;;;;;11.73;8.40;;;3.20;99.90;;;;;;4859571;29;20050;-73
2021/03/30 03:54:11;;;;;;;14.20;7.78;;;3.20;99.90;;;;;;4860397;29;20029;-73
2021/03/30 03:56:44;;;;;;;14.57;7.38;;;3.30;99.90;;;;;;4862633;29;20037;-74
2021/03/30 03:59:17;;;;;;;14.00;7.55;;;3.20;99.90;;;;;;4863081;29;20502;-74
2021/03/30 04:01:55;;;;;;;15.20;7.75;;;3.30;99.90;;;;;;4863593;29;20048;-73
2021/03/30 04:04:53;;;;;;;15.20;6.53;;;3.20;99.90;;;;;;4863502;29;20061;-73
2021/03/30 04:07:22;;;;;;;10.30;6.78;;;3.10;99.90;;;;;;4863483;29;20474;-73
2021/03/30 04:09:54;;;;;;;14.63;7.75;;;3.10;99.90;;;;;;4862565;29;20033;-73
2021/03/30 04:12:25;;;;;;;13.05;7.60;;;3.00;99.90;;;;;;4864053;29;20056;-73
2021/03/30 04:14:51;;;;;;;11.70;7.17;;;3.00;99.90;;;;;;4863789;29;20053;-73
2021/03/30 04:17:18;;;;;;;13.80;6.85;;;2.90;99.90;;;;;;4863350;29;20479;-73
2021/03/30 04:19:45;;;;;;;17.58;7.22;;;2.80;99.90;;;;;;4863108;29;20033;-73
2021/03/30 04:22:16;;;;;;;16.58;6.20;;;2.70;99.90;;;;;;4863548;29;20052;-73
2021/03/30 04:24:43;;;;;;;14.48;7.78;;;2.70;99.90;;;;;;4861711;29;20057;-73
2021/03/30 04:27:14;;;;;;;15.02;7.13;;;2.70;99.90;;;;;;4863543;29;20046;-73
2021/03/30 04:29:41;;;;;;;11.15;6.85;;;2.70;99.90;;;;;;4863402;29;20038;-73
2021/03/30 04:32:09;;;;;;;13.13;7.00;;;2.80;99.90;;;;;;4863477;29;20044;-73
2021/03/30 04:34:35;;;;;;;16.33;6.88;;;2.60;99.90;;;;;;4862749;29;20044;-73
2021/03/30 04:37:03;;;;;;;12.40;6.75;;;2.50;99.90;;;;;;4863808;29;20056;-73
2021/03/30 04:39:29;;;;;;;13.60;6.50;;;2.50;99.90;;;;;;4863284;29;20036;-73
2021/03/30 04:41:55;;;;;;;13.85;6.60;;;2.50;99.90;;;;;;4863161;29;20057;-73
2021/03/30 04:44:22;;;;;;;13.82;7.18;;;2.50;99.90;;;;;;4862873;29;20045;-73
2021/03/30 04:46:48;;;;;;;11.60;7.00;;;2.60;99.90;;;;;;4863060;29;20269;-73
2021/03/30 04:49:14;;;;;;;15.85;7.93;;;2.60;99.90;;;;;;4863845;29;20399;-74
2021/03/30 04:51:40;;;;;;;23.02;7.88;;;2.50;99.90;;;;;;4863043;29;20037;-74
2021/03/30 04:54:06;;;;;;;18.73;7.43;;;2.50;99.90;;;;;;4862569;29;20483;-73
2021/03/30 04:56:36;;;;;;;16.92;7.88;;;2.50;99.90;;;;;;4862729;29;20490;-74
2021/03/30 04:59:03;;;;;;;14.88;7.85;;;2.50;99.90;;;;;;4862794;29;20048;-73
2021/03/30 05:01:29;;;;;;;12.95;7.35;;;2.50;99.90;;;;;;4873266;29;20479;-73
2021/03/30 05:03:56;;;;;;;14.98;7.82;;;2.60;99.90;;;;;;4863100;29;20040;-73
2021/03/30 05:06:22;;;;;;;13.88;7.25;;;2.60;99.90;;;;;;4861901;29;20057;-73
2021/03/30 05:08:48;;;;;;;14.05;7.43;;;2.50;99.90;;;;;;4862188;29;20611;-73
2021/03/30 05:11:14;;;;;;;12.95;8.05;;;2.60;99.90;;;;;;4862964;29;20038;-72
2021/03/30 05:13:41;;;;;;;15.25;7.70;;;2.60;99.90;;;;;;4862231;29;20399;-72
2021/03/30 05:16:07;;;;;;;16.73;8.13;;;2.60;99.90;;;;;;4862649;29;20044;-72
2021/03/30 05:18:33;;;;;;;19.20;8.73;;;2.60;99.90;;;;;;4862526;29;20052;-73
2021/03/30 05:21:00;;;;;;;11.55;7.53;;;2.60;99.90;;;;;;4862903;29;20056;-73
2021/03/30 05:23:26;;;;;;;15.80;7.80;;;2.60;99.90;;;;;;4862630;29;20368;-73
2021/03/30 05:25:53;;;;;;;16.08;7.80;;;2.60;99.90;;;;;;4862301;29;20053;-73
2021/03/30 05:28:19;;;;;;;13.55;7.15;;;2.50;99.90;;;;;;4862721;29;20054;-73
2021/03/30 05:30:45;;;;;;;13.35;7.72;;;2.60;99.90;;;;;;4861957;29;20038;-73
2021/03/30 05:33:11;;;;;;;14.23;7.43;;;2.60;99.90;;;;;;4862419;29;20025;-73
2021/03/30 05:35:37;;;;;;;18.88;8.35;;;2.60;99.90;;;;;;4861851;29;20049;-73
2021/03/30 05:38:04;;;;;;;17.98;8.38;;;2.60;99.90;;;;;;4862009;29;20394;-73
2021/03/30 05:40:30;;;;;;;12.90;7.95;;;2.60;99.90;;;;;;4861806;29;20380;-73
2021/03/30 05:42:58;;;;;;;15.88;7.68;;;2.70;99.90;;;;;;4861657;29;20050;-73
2021/03/30 05:45:24;;;;;;;17.15;8.02;;;2.70;99.90;;;;;;4861751;29;20045;-73
2021/03/30 05:47:51;;;;;;;13.77;6.88;;;2.70;99.90;;;;;;4861719;29;20041;-72
2021/03/30 05:50:19;;;;;;;13.73;7.85;;;2.80;99.90;;;;;;4861669;29;20025;-73
2021/03/30 05:52:50;;;;;;;18.45;7.57;;;2.90;99.90;;;;;;4861183;29;20045;-74
2021/03/30 05:55:27;;;;;;;12.25;7.75;;;3.50;99.90;;;;;;4861785;29;20038;-74
2021/03/30 05:57:55;;;;;;;14.85;7.15;;;4.50;99.90;;;;;;4861609;29;20060;-73
2021/03/30 06:00:37;;;;;;;12.20;6.80;;;5.20;99.90;;;;;;4861946;29;20490;-73
2021/03/30 06:03:08;;;;;;;15.73;6.75;;;6.00;98.60;;;;;;4861708;29;20029;-73
2021/03/30 06:05:35;;;;;;;13.32;7.05;;;6.90;94.60;;;;;;4861063;29;20052;-74
2021/03/30 06:08:03;;;;;;;13.20;7.28;;;7.60;90.30;;;;;;4861563;29;20041;-73
2021/03/30 06:10:32;;;;;;;11.40;6.85;;;8.90;81.10;;;;;;4861410;29;20037;-78
2021/03/30 06:13:00;;;;;;;13.13;7.65;;;9.50;75.50;;;;;;4861783;29;20040;-79
2021/03/30 06:15:29;;;;;;;12.60;6.50;;;10.00;71.50;;;;;;4861764;29;20029;-77
2021/03/30 06:17:57;;;;;;;10.38;7.00;;;10.20;69.00;;;;;;4865299;29;20477;-77
2021/03/30 06:20:35;;;;;;;11.93;6.55;;;10.10;69.00;;;;;;4888210;29;20044;-77
2021/03/30 06:23:04;;;;;;;13.35;6.80;;;10.20;67.90;;;;;;4877093;29;20059;-77
2021/03/30 06:25:50;;;;;;;11.65;6.47;;;10.20;67.70;;;;;;4878694;29;20391;-76
2021/03/30 06:28:22;;;;;;;11.30;6.43;;;11.00;67.30;;;;;;4872483;29;20037;-76
2021/03/30 06:31:04;;;;;;;11.65;6.65;;;12.10;63.70;;;;;;4868640;29;20044;-77
2021/03/30 06:33:33;;;;;;;9.48;6.75;;;12.90;59.30;;;;;;4878898;29;20033;-77
2021/03/30 06:36:21;;;;;;;10.10;5.65;;;12.40;59.70;;;;;;4871590;29;20048;-77
2021/03/30 06:39:01;;;;;;;9.10;5.80;;;11.80;62.10;;;;;;4860862;29;20395;-77
2021/03/30 06:42:01;;;;;;;8.55;5.90;;;12.10;62.60;;;;;;4860245;29;20072;-77
2021/03/30 06:44:33;;;;;;;8.23;5.28;;;14.20;57.60;;;;;;4866854;29;20041;-77
2021/03/30 06:47:07;;;;;;;10.55;5.32;;;15.20;54.30;;;;;;4864139;29;20055;-79
2021/03/30 06:49:36;;;;;;;7.50;5.10;;;14.80;54.00;;;;;;4873280;29;20037;-77
2021/03/30 06:52:17;;;;;;;6.78;4.57;;;14.50;54.90;;;;;;4869206;29;20049;-77
2021/03/30 06:55:02;;;;;;;6.70;4.57;;;13.80;56.00;;;;;;4865927;29;20391;-76
2021/03/30 06:57:46;;;;;;;10.13;4.57;;;13.40;56.50;;;;;;4869207;29;20045;-77
2021/03/30 07:00:12;;;;;;;10.85;4.78;;;13.40;57.20;;;;;;4860867;29;20056;-78
2021/03/30 07:02:44;;;;;;;7.57;4.25;;;13.40;56.80;;;;;;4871233;29;20036;-77
2021/03/30 07:05:28;;;;;;;8.10;4.60;;;13.50;56.40;;;;;;4860484;29;20056;-77
2021/03/30 07:08:00;;;;;;;8.32;4.43;;;14.00;56.00;;;;;;4860397;29;20483;-77
2021/03/30 07:10:28;;;;;;;6.60;4.15;;;13.70;56.00;;;;;;4859893;29;20045;-77
2021/03/30 07:12:55;;;;;;;9.02;5.22;;;13.90;55.20;;;;;;4860289;29;20415;-76
2021/03/30 07:15:23;;;;;;;7.18;4.68;;;14.90;53.70;;;;;;4860556;29;20049;-78
2021/03/30 07:18:00;;;;;;;7.68;5.30;;;16.60;51.80;;;;;;4875270;29;20044;-78
2021/03/30 07:20:27;;;;;;;9.50;5.07;;;15.70;50.50;;;;;;4866136;29;20056;-77
2021/03/30 07:22:55;;;;;;;6.57;4.80;;;14.40;52.50;;;;;;4866306;29;20067;-78
2021/03/30 07:25:23;;;;;;;7.10;4.70;;;14.30;53.10;;;;;;4869444;29;20033;-78
2021/03/30 07:28:07;;;;;;;9.15;5.03;;;14.10;53.10;;;;;;4873140;29;20044;-78
2021/03/30 07:30:36;;;;;;;10.15;6.55;;;14.70;53.70;;;;;;4859357;29;20388;-77
2021/03/30 07:33:21;;;;;;;9.40;4.78;;;14.90;52.10;;;;;;4858394;29;20411;-77
2021/03/30 07:35:48;;;;;;;8.02;4.32;;;15.80;51.60;;;;;;4861243;29;20060;-77
2021/03/30 07:38:25;;;;;;;6.93;5.70;;;17.70;48.80;;;;;;4861059;29;20049;-77
2021/03/30 07:40:52;;;;;;;6.53;4.60;;;17.30;48.00;;;;;;4867728;29;20049;-74
2021/03/30 07:43:27;;;;;;;10.20;4.93;;;16.10;49.90;;;;;;4861146;29;20056;-77
2021/03/30 07:45:56;;;;;;;9.85;4.80;;;15.80;50.70;;;;;;4859571;29;20042;-77
2021/03/30 07:48:24;;;;;;;8.17;4.43;;;16.40;51.10;;;;;;4859173;29;20064;-78
2021/03/30 07:50:59;;;;;;;6.70;4.13;;;18.00;48.00;;;;;;4859560;29;20089;-78
2021/03/30 07:53:42;;;;;;;6.93;4.47;;;18.10;47.50;;;;;;4876198;29;20041;-78
2021/03/30 07:56:28;;;;;;;6.82;4.95;;;17.70;47.90;;;;;;4860336;29;20041;-76
2021/03/30 07:58:57;;;;;;;7.43;4.38;;;17.50;47.10;;;;;;4862906;29;20394;-76
2021/03/30 08:01:30;;;;;;;8.90;4.63;;;18.00;46.70;;;;;;4860635;29;20046;-73
2021/03/30 08:03:59;;;;;;;9.68;4.93;;;16.60;48.90;;;;;;4861657;29;20040;-73
2021/03/30 08:06:27;;;;;;;9.07;4.40;;;17.00;48.60;;;;;;4863763;29;20037;-77
2021/03/30 08:09:06;;;;;;;8.65;4.47;;;17.70;48.50;;;;;;4858067;29;20136;-77
2021/03/30 08:11:46;;;;;;;7.97;4.53;;;17.70;47.40;;;;;;4862096;29;20044;-78
2021/03/30 08:14:15;;;;;;;;;;;16.90;48.50;;;;;;4860045;29;20427;-78
2021/03/30 08:16:42;;;;;;;9.95;5.35;;;17.50;47.50;;;;;;4858870;29;20393;-78
2021/03/30 08:19:18;;;;;;;6.43;5.70;;;16.20;49.70;;;;;;4864792;29;20049;-78
2021/03/30 08:22:14;;;;;;;7.72;5.10;;;15.40;51.60;;;;;;4859541;29;20033;-79
2021/03/30 08:24:46;;;;;;;10.43;5.45;;;16.20;50.90;;;;;;4851458;29;20045;-79
2021/03/30 08:27:31;;;;;;;9.25;5.53;;;16.40;50.50;;;;;;4878140;29;20041;-77
2021/03/30 08:30:16;;;;;;;10.43;6.50;;;17.00;50.50;;;;;;4859483;29;20040;-76
2021/03/30 08:32:46;;;;;;;12.95;5.90;;;18.20;50.00;;;;;;4864084;29;20044;-77
2021/03/30 08:35:32;;;;;;;9.75;5.75;;;17.50;48.60;;;;;;4861245;29;20044;-78
2021/03/30 08:37:59;;;;;;;7.82;5.22;;;17.80;48.70;;;;;;4865287;29;20394;-78
2021/03/30 08:40:35;;;;;;;9.93;5.82;;;17.30;49.60;;;;;;4861221;29;20045;-78
2021/03/30 08:43:21;;;;;;;10.52;6.13;;;16.90;50.20;;;;;;4866166;29;20068;-77
2021/03/30 08:46:09;;;;;;;8.82;5.45;;;17.10;50.00;;;;;;4872038;29;20048;-77
2021/03/30 08:48:49;;;;;;;9.18;4.72;;;18.20;48.50;;;;;;4871252;29;20037;-75
2021/03/30 08:51:17;;;;;;;10.73;5.15;;;18.10;48.60;;;;;;4868704;29;20046;-75
2021/03/30 08:53:46;;;;;;;9.80;4.85;;;17.20;49.00;;;;;;4869130;29;20485;-81
2021/03/30 08:56:13;;;;;;;8.00;5.68;;;18.00;48.50;;;;;;4861900;29;20426;-79
2021/03/30 08:58:47;;;;;;;10.05;5.32;;;18.20;47.20;;;;;;4861672;29;20034;-80
2021/03/30 09:01:14;;;;;;;6.75;4.93;;;19.10;47.10;;;;;;4863398;29;20041;-80
2021/03/30 09:03:41;;;;;;;9.23;5.00;;;19.90;45.40;;;;;;4862840;29;20034;-79
2021/03/30 09:06:27;;;;;;;8.05;5.05;;;20.50;45.20;;;;;;4872508;29;20048;-79
2021/03/30 09:08:53;;;;;;;11.68;4.72;;;20.20;44.40;;;;;;4864414;29;20046;-80
2021/03/30 09:11:25;;;;;;;9.80;6.00;;;19.80;45.00;;;;;;4862406;29;20041;-80
2021/03/30 09:14:19;;;;;;;9.82;4.97;;;19.40;45.00;;;;;;4860975;29;20049;-81
2021/03/30 09:16:47;;;;;;;9.07;5.80;;;19.40;44.70;;;;;;4861249;29;20052;-81
2021/03/30 09:19:14;;;;;;;11.90;5.65;;;18.70;46.40;;;;;;4863226;29;20057;-80
2021/03/30 09:21:42;;;;;;;6.70;4.75;;;19.40;45.00;;;;;;4861294;29;20048;-80
2021/03/30 09:24:35;;;;;;;8.55;5.13;;;20.00;44.30;;;;;;4862625;29;20041;-80
2021/03/30 09:26:57;;;;;;;8.63;5.75;;;21.80;43.50;;;;;;4861590;29;20487;-81
2021/03/30 09:29:23;;;;;;;9.63;5.72;;;21.60;41.90;;;;;;4861362;29;20368;-81
2021/03/30 09:31:50;;;;;;;11.68;7.05;;;20.60;42.70;;;;;;4862284;29;20541;-79
2021/03/30 09:34:16;;;;;;;12.63;5.90;;;21.00;43.60;;;;;;4874076;29;20049;-80
2021/03/30 09:36:45;;;;;;;12.88;5.20;;;21.70;42.60;;;;;;4869057;29;20037;-82
2021/03/30 09:39:21;;;;;;;10.02;5.20;;;22.70;40.70;;;;;;4872062;29;20473;-82
2021/03/30 09:41:49;;;;;;;8.35;5.57;;;20.40;43.20;;;;;;4875360;29;20475;-80
2021/03/30 09:44:19;;;;;;;6.20;5.10;;;20.30;43.50;;;;;;4864648;29;20041;-81
2021/03/30 09:46:47;;;;;;;;;;;19.80;44.30;;;;;;4879548;29;20386;-82
2021/03/30 09:49:16;;;;;;;11.00;5.95;;;19.70;44.20;;;;;;4861017;29;19920;-79
2021/03/30 09:51:44;;;;;;;12.18;5.57;;;19.20;44.90;;;;;;4867688;29;20037;-79
2021/03/30 09:54:29;;;;;;;9.20;6.10;;;19.30;44.50;;;;;;4876328;29;20394;-78
2021/03/30 09:57:04;;;;;;;14.20;6.63;;;21.40;43.00;;;;;;4862550;29;20034;-77
2021/03/30 09:59:31;;;;;;;13.45;5.60;;;21.70;42.00;;;;;;4869140;29;20048;-78
2021/03/30 10:01:59;;;;;;;10.32;6.55;;;20.50;43.30;;;;;;4870691;29;20038;-78
2021/03/30 10:04:26;;;;;;;12.25;6.13;;;19.80;43.90;;;;;;4861683;29;20033;-75
2021/03/30 10:06:54;;;;;;;10.45;6.88;;;19.70;44.50;;;;;;4863357;29;20058;-75
2021/03/30 10:09:20;;;;;;;11.75;6.95;;;19.50;44.50;;;;;;4871611;29;20056;-75
2021/03/30 10:11:49;;;;;;;12.57;6.63;;;19.80;43.80;;;;;;4870295;29;20415;-76
2021/03/30 10:14:25;;;;;;;10.38;7.32;;;19.20;45.10;;;;;;4874007;29;20473;-76
2021/03/30 10:16:56;;;;;;;10.23;7.13;;;18.70;45.50;;;;;;4876962;29;20051;-77
2021/03/30 10:19:22;;;;;;;10.30;6.82;;;18.50;45.80;;;;;;4887415;29;20382;-76
2021/03/30 10:21:54;;;;;;;11.50;6.82;;;18.30;45.60;;;;;;4851785;29;20053;-79
2021/03/30 10:24:21;;;;;;;12.88;6.88;;;18.40;45.30;;;;;;4873400;29;20037;-77
2021/03/30 10:27:04;;;;;;;11.55;7.00;;;18.60;45.20;;;;;;4877209;29;20647;-77
2021/03/30 10:29:37;;;;;;;11.38;6.25;;;18.40;44.90;;;;;;4877371;29;20052;-77
2021/03/30 10:32:11;;;;;;;7.97;5.60;;;18.40;45.50;;;;;;4859883;29;20056;-77
2021/03/30 10:34:38;;;;;;;12.02;6.38;;;18.70;44.70;;;;;;4861108;29;20040;-80
2021/03/30 10:37:07;;;;;;;10.30;6.57;;;18.70;44.90;;;;;;4859760;29;20049;-77
2021/03/30 10:39:39;;;;;;;13.35;7.20;;;18.60;44.90;;;;;;4861436;29;20038;-77
2021/03/30 10:42:06;;;;;;;12.32;6.57;;;18.80;44.60;;;;;;4860743;29;20054;-78
2021/03/30 10:44:56;;;;;;;13.45;7.55;;;19.10;45.10;;;;;;4861284;29;20037;-77
2021/03/30 10:47:27;;;;;;;12.40;7.03;;;19.40;44.20;;;;;;4861850;29;20041;-78
2021/03/30 10:49:54;;;;;;;9.65;6.78;;;19.40;43.80;;;;;;4861252;29;20383;-78
2021/03/30 10:52:25;;;;;;;15.05;8.00;;;19.30;43.70;;;;;;4860962;29;20033;-77
2021/03/30 10:54:53;;;;;;;;;;;19.30;43.80;;;;;;4861424;29;20026;-79
2021/03/30 10:57:22;;;;;;;11.20;6.95;;;19.20;44.00;;;;;;4860573;29;19919;-79
2021/03/30 10:59:49;;;;;;;14.45;6.60;;;19.40;43.90;;;;;;4869996;29;20040;-77
2021/03/30 11:02:16;;;;;;;10.35;6.57;;;19.50;43.60;;;;;;4871065;29;20036;-79
2021/03/30 11:04:43;;;;;;;11.23;6.15;;;19.50;42.30;;;;;;4858523;29;20041;-80
2021/03/30 11:07:10;;;;;;;9.85;6.90;;;19.70;42.60;;;;;;4868528;29;20042;-81
2021/03/30 11:09:38;;;;;;;13.85;7.35;;;19.80;42.00;;;;;;4859736;29;20054;-81
2021/03/30 11:12:06;;;;;;;11.30;5.88;;;19.70;42.30;;;;;;4867139;29;20045;-75
2021/03/30 11:14:32;;;;;;;13.25;6.85;;;19.70;42.10;;;;;;4860791;29;20029;-75
2021/03/30 11:16:59;;;;;;;13.77;6.85;;;19.80;41.30;;;;;;4864570;29;20060;-77
2021/03/30 11:19:26;;;;;;;10.07;6.38;;;19.70;41.30;;;;;;4862097;29;20049;-76
2021/03/30 11:21:52;;;;;;;12.98;6.93;;;19.90;41.70;;;;;;4868729;29;20475;-77
2021/03/30 11:24:21;;;;;;;8.38;5.47;;;20.20;41.80;;;;;;4870854;29;20028;-76
2021/03/30 11:26:50;;;;;;;14.85;8.05;;;20.60;41.30;;;;;;4869880;29;20048;-77
2021/03/30 11:29:28;;;;;;;12.70;8.40;;;20.80;40.20;;;;;;4863743;29;20436;-76
2021/03/30 11:37:02;;;;;;;11.55;6.80;;;20.60;39.70;;;;;;4858856;29;20510;-78
2021/03/30 11:39:28;;;;;;;11.25;6.50;;;20.60;40.20;;;;;;4860878;29;20033;-77
2021/03/30 11:41:54;;;;;;;12.30;7.18;;;21.10;39.50;;;;;;4864472;29;20407;-79
2021/03/30 11:44:21;;;;;;;10.68;6.97;;;21.40;39.60;;;;;;4863763;29;20034;-78
2021/03/30 11:46:47;;;;;;;11.38;6.57;;;21.30;38.90;;;;;;4862782;29;20029;-78
2021/03/30 11:49:13;;;;;;;10.23;6.55;;;21.40;38.80;;;;;;4865044;29;20049;-80
2021/03/30 11:51:40;;;;;;;12.45;6.65;;;21.30;38.70;;;;;;4861636;29;20471;-81
2021/03/30 11:54:06;;;;;;;11.98;6.53;;;21.10;39.10;;;;;;4877277;29;20398;-81
2021/03/30 11:56:32;;;;;;;9.02;6.43;;;21.30;38.20;;;;;;4860915;29;20134;-81
2021/03/30 11:58:59;;;;;;;12.25;6.50;;;21.10;38.50;;;;;;4874104;29;20407;-81
2021/03/30 12:01:25;;;;;;;13.10;6.78;;;21.20;38.80;;;;;;4860510;29;20033;-81
2021/03/30 12:03:51;;;;;;;10.43;6.43;;;21.20;37.90;;;;;;4860573;29;20029;-82
2021/03/30 12:06:17;;;;;;;9.80;5.68;;;21.40;38.10;;;;;;4860511;29;20495;-81
2021/03/30 12:08:44;;;;;;;8.00;5.43;;;21.70;37.30;;;;;;4859950;29;20395;-82
2021/03/30 12:11:10;;;;;;;10.13;5.82;;;21.90;37.80;;;;;;4860867;29;20371;-81
2021/03/30 12:13:36;;;;;;;11.43;6.00;;;22.00;37.40;;;;;;4858963;29;20038;-81
2021/03/30 12:16:03;;;;;;;9.27;4.47;;;21.80;36.40;;;;;;4861699;29;20057;-80
2021/03/30 12:18:29;;;;;;;5.90;4.15;;;21.50;36.50;;;;;;4863148;29;20033;-81
2021/03/30 12:20:55;;;;;;;8.30;4.30;;;21.50;36.90;;;;;;4877888;29;20049;-82
2021/03/30 12:23:22;;;;;;;8.60;4.93;;;21.90;36.90;;;;;;4881210;29;20032;-81
2021/03/30 12:25:48;;;;;;;10.57;5.30;;;21.90;36.40;;;;;;4862252;29;20036;-80
2021/03/30 12:28:14;;;;;;;8.40;4.30;;;21.80;36.80;;;;;;4863877;29;20041;-80
2021/03/30 12:30:41;;;;;;;8.85;4.78;;;21.90;35.80;;;;;;4864027;29;20034;-80
2021/03/30 12:33:08;;;;;;;7.72;4.95;;;21.90;35.90;;;;;;4864015;29;20044;-81
2021/03/30 12:35:34;;;;;;;8.90;4.50;;;22.30;36.70;;;;;;4864107;29;20363;-81
2021/03/30 12:38:00;;;;;;;7.43;4.95;;;22.50;36.30;;;;;;4877986;29;20045;-84
2021/03/30 12:40:27;;;;;;;6.18;3.67;;;22.50;36.00;;;;;;4878990;29;20037;-81
2021/03/30 12:42:53;;;;;;;7.35;4.07;;;22.30;35.80;;;;;;4879712;29;20104;-80
2021/03/30 12:45:20;;;;;;;9.32;4.25;;;22.40;36.20;;;;;;4882238;29;20033;-81
2021/03/30 12:47:46;;;;;;;9.15;4.10;;;22.60;36.60;;;;;;4883969;29;20386;-81
2021/03/30 12:50:14;;;;;;;9.07;4.55;;;22.70;36.00;;;;;;4882092;29;20048;-81
2021/03/30 12:52:40;;;;;;;6.97;3.95;;;22.90;37.00;;;;;;4881925;29;20041;-81
2021/03/30 12:55:08;;;;;;;7.82;4.88;;;23.00;36.30;;;;;;4881869;29;20037;-81
2021/03/30 12:57:35;;;;;;;5.75;3.78;;;23.00;36.30;;;;;;4899940;29;20036;-81
2021/03/30 13:00:03;;;;;;;6.95;4.00;;;23.20;36.10;;;;;;4881460;29;20041;-82
2021/03/30 13:02:29;;;;;;;7.03;4.22;;;23.20;35.80;;;;;;4881964;29;20044;-79
2021/03/30 13:04:56;;;;;;;10.52;4.35;;;23.20;35.10;;;;;;4880790;29;20036;-78
2021/03/30 13:07:22;;;;;;;6.78;4.45;;;22.90;35.40;;;;;;4881862;29;20041;-80
2021/03/30 13:09:49;;;;;;;6.85;4.32;;;22.90;36.10;;;;;;4881355;29;20529;-78